Time;durP1;ratioP1;P1;durP2;ratioP2;P2;SDS_P1;SDS_P2;PMS_P1;PMS_P2;Temp;Humidity;BMP_temperature;BMP_pressure;BME280_temperature;BME280_humidity;BME280_pressure;Samples;Min_cycle;Max_cycle;Signal;HPM_P1;HPM_P2
2022/05/26 00:01:22;;;;;;;29.00;9.63;;;13.80;99.90;;;;;;5029951;28;20072;-61
2022/05/26 00:03:48;;;;;;;29.40;9.27;;;13.90;99.90;;;;;;5047726;28;20057;-61
2022/05/26 00:06:18;;;;;;;23.33;9.27;;;13.80;99.90;;;;;;5046478;28;20102;-62
2022/05/26 00:08:44;;;;;;;23.65;8.75;;;13.80;99.90;;;;;;5047733;28;20152;-62
2022/05/26 00:11:28;;;;;;;31.88;9.65;;;13.90;99.90;;;;;;5017074;28;20091;-62
2022/05/26 00:13:54;;;;;;;32.00;10.13;;;14.00;99.90;;;;;;5033383;28;20419;-61
2022/05/26 00:16:21;;;;;;;31.48;10.90;;;14.00;99.90;;;;;;5034883;28;21248;-62
2022/05/26 00:18:47;;;;;;;31.85;10.55;;;13.80;99.90;;;;;;5025703;28;20045;-62
2022/05/26 00:21:13;;;;;;;28.67;9.82;;;13.80;99.90;;;;;;5023811;28;20044;-61
2022/05/26 00:23:40;;;;;;;32.47;9.65;;;13.80;99.90;;;;;;5041771;28;20102;-61
2022/05/26 00:26:06;;;;;;;30.27;9.90;;;13.90;99.90;;;;;;5011003;28;20107;-62
2022/05/26 00:28:32;;;;;;;34.70;10.45;;;13.70;99.90;;;;;;5019114;28;20038;-62
2022/05/26 00:30:59;;;;;;;29.15;9.55;;;13.80;99.90;;;;;;5024973;28;20432;-61
2022/05/26 00:33:25;;;;;;;33.25;11.02;;;13.70;99.90;;;;;;5038613;28;20490;-62
2022/05/26 00:35:51;;;;;;;29.15;10.00;;;13.80;99.90;;;;;;5022085;28;20037;-63
2022/05/26 00:38:17;;;;;;;27.00;9.70;;;13.60;99.90;;;;;;5031570;28;20216;-64
2022/05/26 00:40:49;;;;;;;26.63;9.90;;;13.60;99.90;;;;;;5019609;28;20045;-63
2022/05/26 00:43:15;;;;;;;34.03;10.85;;;13.70;99.90;;;;;;5037615;28;20076;-63
2022/05/26 00:46:00;;;;;;;36.50;12.77;;;13.50;99.90;;;;;;5048155;28;20431;-63
2022/05/26 00:48:33;;;;;;;40.85;11.32;;;13.50;99.90;;;;;;5037777;28;20049;-62
2022/05/26 00:51:01;;;;;;;;;;;13.50;99.90;;;;;;5033596;28;20042;-62
2022/05/26 00:53:37;;;;;;;38.53;12.40;;;13.40;99.90;;;;;;5042348;28;20023;-63
2022/05/26 00:56:33;;;;;;;28.77;11.63;;;13.40;99.90;;;;;;5037273;28;20029;-61
2022/05/26 00:59:14;;;;;;;36.55;13.40;;;13.30;99.90;;;;;;5036955;28;20076;-63
2022/05/26 01:01:40;;;;;;;42.60;13.65;;;13.40;99.90;;;;;;5038739;28;20274;-62
2022/05/26 01:04:10;;;;;;;38.85;12.05;;;13.20;99.90;;;;;;5022746;28;20407;-62
2022/05/26 01:06:42;;;;;;;36.97;11.75;;;13.40;99.90;;;;;;5052967;28;20038;-62
2022/05/26 01:09:07;;;;;;;37.55;13.32;;;13.50;99.90;;;;;;5037668;28;20128;-62
2022/05/26 01:11:36;;;;;;;33.20;11.85;;;13.20;99.90;;;;;;5017783;28;20142;-62
2022/05/26 01:14:15;;;;;;;33.08;11.02;;;13.20;99.90;;;;;;5036861;28;20045;-63
2022/05/26 01:16:50;;;;;;;34.30;11.75;;;13.30;99.90;;;;;;5036893;28;20064;-61
2022/05/26 01:19:49;;;;;;;35.17;11.65;;;13.40;99.90;;;;;;5037101;28;20081;-61
2022/05/26 01:22:24;;;;;;;32.85;10.32;;;13.30;99.90;;;;;;5029201;28;20080;-61
2022/05/26 01:25:28;;;;;;;38.05;10.10;;;13.50;99.90;;;;;;5045007;28;20115;-63
2022/05/26 01:28:33;;;;;;;37.22;10.45;;;13.50;99.90;;;;;;5036987;28;20490;-61
2022/05/26 01:31:28;;;;;;;34.92;10.07;;;13.50;99.90;;;;;;5026450;28;20593;-62
2022/05/26 01:34:20;;;;;;;33.15;8.93;;;13.50;99.90;;;;;;5012392;28;20049;-61
2022/05/26 01:36:58;;;;;;;42.58;10.52;;;13.50;99.90;;;;;;5035822;28;20064;-63
2022/05/26 01:39:32;;;;;;;37.22;9.82;;;13.50;99.90;;;;;;5032007;28;20391;-62
2022/05/26 01:42:21;;;;;;;37.17;9.73;;;13.40;99.90;;;;;;5036721;28;20391;-61
2022/05/26 01:45:05;;;;;;;39.10;9.38;;;13.50;99.90;;;;;;5022060;28;20087;-63
2022/05/26 01:47:49;;;;;;;38.10;8.73;;;13.50;99.90;;;;;;5037454;28;20131;-64
2022/05/26 01:50:40;;;;;;;30.85;7.72;;;13.50;99.90;;;;;;5035337;28;20041;-63
2022/05/26 01:53:41;;;;;;;32.47;7.53;;;13.40;99.90;;;;;;5037082;28;20037;-62
2022/05/26 01:56:28;;;;;;;29.65;7.60;;;13.40;99.90;;;;;;5037171;28;20340;-62
2022/05/26 01:59:19;;;;;;;39.55;8.32;;;13.50;99.90;;;;;;5052948;28;20045;-63
2022/05/26 02:02:07;;;;;;;32.08;7.78;;;13.40;99.90;;;;;;5011317;28;20597;-60
2022/05/26 02:04:41;;;;;;;34.28;7.22;;;13.60;99.90;;;;;;5036620;28;20060;-60
2022/05/26 02:07:26;;;;;;;28.35;6.15;;;13.50;99.90;;;;;;5035660;28;20045;-61
2022/05/26 02:09:56;;;;;;;33.25;6.70;;;13.50;99.90;;;;;;5021225;28;20037;-62
2022/05/26 02:12:39;;;;;;;18.83;4.78;;;13.50;99.90;;;;;;5037052;28;20064;-62
2022/05/26 02:15:11;;;;;;;;;;;13.60;99.90;;;;;;5032159;28;20092;-60
2022/05/26 02:17:46;;;;;;;31.48;5.68;;;13.60;99.90;;;;;;5015382;28;19917;-61
2022/05/26 02:20:32;;;;;;;32.80;5.40;;;13.50;99.90;;;;;;5032786;28;20034;-61
2022/05/26 02:23:08;;;;;;;23.38;5.05;;;13.60;99.90;;;;;;5052412;28;20399;-62
2022/05/26 02:25:34;;;;;;;24.10;5.10;;;13.60;99.90;;;;;;5041145;28;20044;-62
2022/05/26 02:28:00;;;;;;;22.48;4.97;;;13.50;99.90;;;;;;5044371;28;20037;-62
2022/05/26 02:30:33;;;;;;;26.45;5.57;;;13.50;99.90;;;;;;5021061;28;20060;-62
2022/05/26 02:32:59;;;;;;;;;;;13.50;99.90;;;;;;5039234;28;20079;-62
2022/05/26 02:35:33;;;;;;;25.55;4.82;;;13.40;99.90;;;;;;5032615;28;19917;-62
2022/05/26 02:38:02;;;;;;;27.50;6.10;;;13.40;99.90;;;;;;5042064;28;20480;-61
2022/05/26 02:40:28;;;;;;;24.23;5.63;;;13.30;99.90;;;;;;5025892;28;20037;-62
2022/05/26 02:42:59;;;;;;;29.35;6.07;;;13.20;99.90;;;;;;5014639;28;20041;-62
2022/05/26 02:45:43;;;;;;;27.35;6.30;;;13.30;99.90;;;;;;5041456;28;20470;-61
2022/05/26 02:48:21;;;;;;;34.40;7.60;;;13.10;99.90;;;;;;5037419;28;20055;-62
2022/05/26 02:51:09;;;;;;;33.20;6.90;;;13.20;99.90;;;;;;5024983;28;20562;-61
2022/05/26 02:54:28;;;;;;;26.23;6.88;;;13.10;99.90;;;;;;5042833;28;20037;-61
2022/05/26 02:57:00;;;;;;;34.78;7.78;;;12.90;99.90;;;;;;5002626;28;20042;-61
2022/05/26 02:59:38;;;;;;;29.50;7.38;;;13.00;99.90;;;;;;5039170;28;20305;-61
2022/05/26 03:02:27;;;;;;;33.80;8.10;;;13.00;99.90;;;;;;5033858;28;20055;-61
2022/05/26 03:05:16;;;;;;;36.67;8.13;;;13.00;99.90;;;;;;5031246;28;20144;-61
2022/05/26 03:07:46;;;;;;;38.55;7.80;;;12.90;99.90;;;;;;5036260;28;20321;-61
2022/05/26 03:10:15;;;;;;;34.85;7.60;;;13.00;99.90;;;;;;5020405;28;20037;-61
2022/05/26 03:12:41;;;;;;;43.35;8.80;;;12.90;99.90;;;;;;5046062;28;20043;-61
2022/05/26 03:15:08;;;;;;;26.15;6.57;;;12.80;99.90;;;;;;5045307;28;20470;-63
2022/05/26 03:17:35;;;;;;;31.20;5.75;;;12.80;99.90;;;;;;5039109;28;20464;-61
2022/05/26 03:20:01;;;;;;;26.35;5.88;;;12.90;99.90;;;;;;5049110;28;20539;-61
2022/05/26 03:22:27;;;;;;;34.35;6.60;;;12.80;99.90;;;;;;5040989;28;20123;-61
2022/05/26 03:24:53;;;;;;;28.40;5.93;;;12.90;99.90;;;;;;5045199;28;20124;-63
2022/05/26 03:27:19;;;;;;;33.65;6.30;;;12.90;99.90;;;;;;5010019;28;20115;-61
2022/05/26 03:29:45;;;;;;;29.90;5.75;;;12.70;99.90;;;;;;5033553;28;20416;-61
2022/05/26 03:32:11;;;;;;;21.63;5.53;;;12.90;99.90;;;;;;5011562;28;20458;-61
2022/05/26 03:42:51;;;;;;;28.85;5.80;;;12.80;99.90;;;;;;5039755;28;20054;-61
2022/05/26 03:45:20;;;;;;;25.85;5.18;;;12.80;99.90;;;;;;5048554;28;20041;-62
2022/05/26 03:47:46;;;;;;;21.40;4.70;;;12.90;99.90;;;;;;5023269;28;20123;-61
2022/05/26 03:50:12;;;;;;;23.45;4.82;;;12.90;99.90;;;;;;5041173;28;20122;-61
2022/05/26 03:52:38;;;;;;;30.92;5.32;;;12.80;99.90;;;;;;5031792;28;20041;-61
2022/05/26 03:55:05;;;;;;;20.40;4.20;;;12.80;99.90;;;;;;5013647;28;20075;-61
2022/05/26 03:57:31;;;;;;;18.42;4.22;;;12.70;99.90;;;;;;5021723;28;20041;-61
2022/05/26 03:59:58;;;;;;;20.35;4.13;;;12.90;99.90;;;;;;5036094;28;20163;-61
2022/05/26 04:02:25;;;;;;;22.60;3.92;;;12.90;99.90;;;;;;5020608;28;20359;-62
2022/05/26 04:04:51;;;;;;;16.73;3.17;;;12.90;99.90;;;;;;5032474;28;20059;-61
2022/05/26 04:07:17;;;;;;;18.85;3.50;;;12.90;99.90;;;;;;5039087;28;20702;-61
2022/05/26 04:09:42;;;;;;;25.17;4.05;;;12.90;99.90;;;;;;5033613;28;20056;-62
2022/05/26 04:12:10;;;;;;;18.35;3.45;;;12.90;99.90;;;;;;5040566;28;20042;-62
2022/05/26 04:14:36;;;;;;;16.67;3.00;;;12.90;99.90;;;;;;5025184;28;20099;-61
2022/05/26 04:17:03;;;;;;;25.80;4.07;;;12.90;99.90;;;;;;5035783;28;20502;-59
2022/05/26 04:19:29;;;;;;;17.88;2.83;;;12.90;99.90;;;;;;5044003;28;20382;-60
2022/05/26 04:24:39;;;;;;;20.08;2.70;;;12.80;99.90;;;;;;5035305;28;20049;-61
2022/05/26 04:27:05;;;;;;;14.93;2.65;;;12.80;99.90;;;;;;5054492;28;20049;-61
2022/05/26 04:29:31;;;;;;;23.48;3.05;;;12.80;99.90;;;;;;5037605;28;20047;-60
2022/05/26 04:31:57;;;;;;;16.45;2.47;;;13.00;99.90;;;;;;5036525;28;20044;-61
2022/05/26 04:34:23;;;;;;;18.20;2.47;;;12.90;99.90;;;;;;5034801;28;20036;-61
2022/05/26 04:36:49;;;;;;;13.43;2.08;;;12.90;99.90;;;;;;5027541;28;20072;-60
2022/05/26 04:39:16;;;;;;;14.00;2.13;;;13.00;99.90;;;;;;5037729;28;20069;-60
2022/05/26 04:41:43;;;;;;;14.27;2.05;;;12.90;99.90;;;;;;5028844;28;20041;-60
2022/05/26 04:44:15;;;;;;;14.52;1.70;;;12.90;99.90;;;;;;5039868;28;20045;-61
2022/05/26 04:46:41;;;;;;;16.35;2.17;;;12.80;99.90;;;;;;5015630;28;20571;-60
2022/05/26 04:49:08;;;;;;;14.27;2.00;;;12.80;99.90;;;;;;5033421;28;20033;-60
2022/05/26 04:51:35;;;;;;;16.23;1.85;;;12.90;99.90;;;;;;5040820;28;20527;-60
2022/05/26 04:54:03;;;;;;;12.73;1.58;;;12.90;99.90;;;;;;5038169;28;20114;-62
2022/05/26 04:56:30;;;;;;;10.00;1.75;;;12.90;99.90;;;;;;5037857;28;20471;-61
2022/05/26 04:58:55;;;;;;;12.82;2.10;;;12.90;99.90;;;;;;5039551;28;20163;-61
2022/05/26 05:01:22;;;;;;;9.50;1.33;;;13.00;99.90;;;;;;5016805;28;20120;-62
2022/05/26 05:03:48;;;;;;;12.38;1.92;;;13.00;99.90;;;;;;5034016;28;20057;-61
2022/05/26 05:06:15;;;;;;;12.50;2.03;;;12.90;99.90;;;;;;5034489;28;20048;-62
2022/05/26 05:08:42;;;;;;;11.25;1.55;;;12.90;99.90;;;;;;5027510;28;20033;-61
2022/05/26 05:11:11;;;;;;;11.98;1.58;;;13.00;99.90;;;;;;5029215;28;20479;-61
2022/05/26 05:13:38;;;;;;;12.15;1.30;;;13.10;99.90;;;;;;5034814;28;20700;-61
2022/05/26 05:16:09;;;;;;;14.23;1.38;;;13.30;99.90;;;;;;5034154;28;20038;-61
2022/05/26 05:18:35;;;;;;;11.23;1.20;;;13.40;99.90;;;;;;5053260;28;20045;-61
2022/05/26 05:21:07;;;;;;;13.38;1.35;;;13.40;99.90;;;;;;5035220;28;20091;-62
2022/05/26 05:23:37;;;;;;;14.30;1.63;;;13.50;99.90;;;;;;5042899;28;20129;-61
2022/05/26 05:26:03;;;;;;;7.82;0.90;;;13.50;99.90;;;;;;5020722;28;20037;-61
2022/05/26 05:28:37;;;;;;;9.90;0.95;;;13.80;99.90;;;;;;5028780;28;20480;-61
2022/05/26 05:31:08;;;;;;;;;;;14.10;99.90;;;;;;5037447;28;20079;-61
2022/05/26 05:33:39;;;;;;;11.20;1.08;;;14.30;99.90;;;;;;5036688;28;19920;-61
2022/05/26 05:36:33;;;;;;;9.23;0.90;;;14.50;99.90;;;;;;5035507;28;20047;-62
2022/05/26 05:39:00;;;;;;;;;;;14.60;99.90;;;;;;5037671;28;20361;-62
2022/05/26 05:41:31;;;;;;;8.80;1.13;;;14.40;99.90;;;;;;5020796;28;19925;-63
2022/05/26 05:43:57;;;;;;;8.10;1.00;;;14.20;99.90;;;;;;5037125;28;20044;-61
2022/05/26 05:46:23;;;;;;;10.32;1.17;;;14.10;99.90;;;;;;5010253;28;20044;-62
2022/05/26 05:48:49;;;;;;;9.32;1.30;;;14.00;99.90;;;;;;5028798;28;20120;-61
2022/05/26 05:51:17;;;;;;;10.68;0.90;;;14.00;99.90;;;;;;5029715;28;20068;-62
2022/05/26 05:53:44;;;;;;;10.35;1.27;;;14.00;99.90;;;;;;5037188;28;20072;-62
2022/05/26 05:56:10;;;;;;;8.90;0.90;;;14.10;99.90;;;;;;5030434;28;20527;-62
2022/05/26 05:58:36;;;;;;;8.30;0.95;;;14.20;99.90;;;;;;5039816;28;20052;-61
2022/05/26 06:01:01;;;;;;;11.55;0.90;;;14.20;99.90;;;;;;5010845;28;20380;-62
2022/05/26 06:03:31;;;;;;;7.03;1.10;;;14.00;99.90;;;;;;5039009;28;20055;-62
2022/05/26 06:06:07;;;;;;;8.10;0.80;;;14.00;99.90;;;;;;5042347;28;20061;-60
2022/05/26 06:08:34;;;;;;;7.82;0.65;;;14.00;99.90;;;;;;5047217;28;20048;-60
2022/05/26 06:11:00;;;;;;;8.77;0.95;;;14.30;99.90;;;;;;5020429;28;20080;-61
2022/05/26 06:13:26;;;;;;;9.27;0.88;;;14.50;99.90;;;;;;5021879;28;20053;-61
2022/05/26 06:15:53;;;;;;;10.75;0.98;;;14.90;99.90;;;;;;5029782;28;20025;-60
2022/05/26 06:18:19;;;;;;;8.60;0.63;;;15.10;99.90;;;;;;5024091;28;20030;-61
2022/05/26 06:20:45;;;;;;;7.15;0.60;;;15.30;99.90;;;;;;5032631;28;20043;-61
2022/05/26 06:23:12;;;;;;;9.40;0.50;;;15.30;99.90;;;;;;5040984;28;20053;-61
2022/05/26 06:25:38;;;;;;;10.30;1.38;;;15.30;99.90;;;;;;5032344;28;20045;-61
2022/05/26 06:30:49;;;;;;;8.43;0.90;;;15.60;99.90;;;;;;5028171;28;20045;-62
2022/05/26 06:38:44;;;;;;;11.20;1.08;;;15.30;99.90;;;;;;5029431;28;20068;-61
2022/05/26 06:43:58;;;;;;;10.18;0.82;;;15.20;99.90;;;;;;5043113;28;20114;-61
2022/05/26 06:46:24;;;;;;;8.77;0.50;;;15.30;99.90;;;;;;5020662;28;20048;-61
2022/05/26 06:48:50;;;;;;;7.88;0.52;;;15.30;99.90;;;;;;5038897;28;20407;-59
2022/05/26 06:51:16;;;;;;;10.65;0.90;;;15.20;99.90;;;;;;5053547;28;20111;-61
2022/05/26 06:53:42;;;;;;;11.23;0.68;;;15.40;99.90;;;;;;5029742;28;20112;-61
2022/05/26 06:56:08;;;;;;;6.28;0.50;;;15.60;99.90;;;;;;5039613;28;20034;-61
2022/05/26 06:58:34;;;;;;;7.90;0.90;;;15.50;99.90;;;;;;5026860;28;20420;-60
2022/05/26 07:01:00;;;;;;;10.32;1.02;;;15.60;99.90;;;;;;5029322;28;20476;-61
2022/05/26 07:03:26;;;;;;;9.50;0.52;;;15.70;99.90;;;;;;5040586;28;20103;-60
2022/05/26 07:05:52;;;;;;;8.55;0.63;;;15.60;99.90;;;;;;5039822;28;20419;-61
2022/05/26 07:08:19;;;;;;;9.05;0.70;;;15.60;99.90;;;;;;5012555;28;20053;-61
2022/05/26 07:10:50;;;;;;;7.40;0.47;;;15.70;99.90;;;;;;5027988;28;20130;-60
2022/05/26 07:13:16;;;;;;;6.10;0.50;;;15.70;99.90;;;;;;5039931;28;20045;-61
2022/05/26 07:15:42;;;;;;;5.95;0.60;;;15.60;99.90;;;;;;5034533;28;20517;-60
2022/05/26 07:18:09;;;;;;;8.35;0.50;;;15.50;99.90;;;;;;5015220;28;20086;-59
2022/05/26 07:20:37;;;;;;;7.80;0.77;;;15.60;99.90;;;;;;5037641;28;20080;-62
2022/05/26 07:23:04;;;;;;;7.53;0.80;;;15.60;99.90;;;;;;5032324;28;20155;-62
2022/05/26 07:25:30;;;;;;;9.60;1.00;;;15.60;99.90;;;;;;5036178;28;20053;-60
2022/05/26 07:27:56;;;;;;;9.70;1.00;;;15.50;99.90;;;;;;5031126;28;20595;-60
2022/05/26 07:30:22;;;;;;;8.30;0.57;;;15.50;99.90;;;;;;5032755;28;20127;-60
2022/05/26 07:32:47;;;;;;;27.48;2.05;;;15.50;99.90;;;;;;5034493;28;20044;-60
2022/05/26 07:35:13;;;;;;;5.53;0.50;;;15.50;99.90;;;;;;5047659;28;20380;-60
2022/05/26 07:43:09;;;;;;;7.32;0.68;;;15.70;99.90;;;;;;5027404;28;20089;-61
2022/05/26 07:45:36;;;;;;;6.40;0.50;;;16.10;99.90;;;;;;5037944;28;20088;-62
2022/05/26 07:48:03;;;;;;;8.05;0.95;;;16.60;99.90;;;;;;5036461;28;20051;-61
2022/05/26 07:50:29;;;;;;;7.00;0.77;;;16.90;99.90;;;;;;5038895;28;20083;-61
2022/05/26 07:52:55;;;;;;;5.07;0.40;;;17.30;99.90;;;;;;5020715;28;20471;-61
2022/05/26 07:55:21;;;;;;;7.47;0.50;;;17.40;99.90;;;;;;5043631;28;20195;-61
2022/05/26 07:57:47;;;;;;;5.40;0.50;;;17.50;99.90;;;;;;5040140;28;20568;-61
2022/05/26 08:00:14;;;;;;;3.78;0.50;;;17.40;99.90;;;;;;5055782;28;20048;-61
2022/05/26 08:02:43;;;;;;;7.25;0.70;;;17.60;99.90;;;;;;5032932;28;20071;-62
2022/05/26 08:05:10;;;;;;;4.43;0.68;;;17.90;99.90;;;;;;5032538;28;20045;-61
2022/05/26 08:07:35;;;;;;;4.65;0.63;;;17.80;99.90;;;;;;5037133;28;20041;-61
2022/05/26 08:10:01;;;;;;;7.53;0.60;;;17.90;99.90;;;;;;5037435;28;20098;-61
2022/05/26 08:12:27;;;;;;;6.55;0.43;;;17.70;99.90;;;;;;5023828;28;20167;-61
2022/05/26 08:14:53;;;;;;;4.72;0.35;;;17.60;99.90;;;;;;5046019;28;20482;-62
2022/05/26 08:17:22;;;;;;;5.80;0.38;;;17.40;99.90;;;;;;5039563;28;20045;-62
2022/05/26 08:19:49;;;;;;;4.25;0.40;;;17.30;99.90;;;;;;5056522;28;20448;-61
2022/05/26 08:22:15;;;;;;;4.90;0.40;;;17.40;99.90;;;;;;5043101;28;20087;-60
2022/05/26 08:24:41;;;;;;;5.97;0.55;;;17.30;99.90;;;;;;5044435;28;20052;-60
2022/05/26 08:27:07;;;;;;;7.15;0.60;;;17.20;99.90;;;;;;5018304;28;20041;-61
2022/05/26 08:29:32;;;;;;;6.10;0.63;;;17.10;99.90;;;;;;5041340;28;20029;-61
2022/05/26 08:31:58;;;;;;;6.88;0.40;;;17.00;99.90;;;;;;5039677;28;20049;-61
2022/05/26 08:34:24;;;;;;;8.48;0.40;;;17.10;99.90;;;;;;5020023;28;20488;-62
2022/05/26 08:36:50;;;;;;;6.10;0.57;;;17.50;99.90;;;;;;4996208;28;20044;-61
2022/05/26 08:39:16;;;;;;;4.90;0.40;;;17.90;99.90;;;;;;5043947;28;20615;-61
2022/05/26 08:41:46;;;;;;;6.22;0.60;;;18.10;99.90;;;;;;5042624;28;20095;-61
2022/05/26 08:44:34;;;;;;;4.90;0.50;;;18.50;99.90;;;;;;5033947;28;20120;-62
2022/05/26 08:47:14;;;;;;;4.28;0.30;;;18.80;99.90;;;;;;5039949;28;20045;-62
2022/05/26 08:49:52;;;;;;;5.50;0.40;;;18.60;99.90;;;;;;5037006;28;20525;-62
2022/05/26 08:52:28;;;;;;;2.42;0.30;;;18.40;99.90;;;;;;5043047;28;20057;-62
2022/05/26 08:55:15;;;;;;;4.07;0.32;;;18.30;99.90;;;;;;5036650;28;20377;-61
2022/05/26 08:58:06;;;;;;;6.97;0.63;;;18.50;99.90;;;;;;5049981;28;20049;-62
2022/05/26 09:00:34;;;;;;;7.03;0.60;;;18.80;99.90;;;;;;5037066;28;20098;-61
2022/05/26 09:03:01;;;;;;;6.13;0.70;;;18.60;99.90;;;;;;5051245;28;20103;-60
2022/05/26 09:05:40;;;;;;;5.05;0.30;;;18.50;99.90;;;;;;5036705;28;20049;-62
2022/05/26 09:13:54;;;;;;;4.75;0.50;;;18.20;99.90;;;;;;5043451;28;20099;-60
2022/05/26 09:16:21;;;;;;;5.55;0.50;;;18.40;99.90;;;;;;5053585;28;20041;-61
2022/05/26 09:19:13;;;;;;;4.45;0.43;;;18.50;99.90;;;;;;5038411;28;20115;-60
2022/05/26 09:21:40;;;;;;;4.15;0.30;;;18.80;99.90;;;;;;5051254;28;20045;-61
2022/05/26 09:24:41;;;;;;;5.63;0.40;;;19.30;99.90;;;;;;5037883;28;20068;-61
2022/05/26 09:27:26;;;;;;;3.65;0.40;;;19.00;99.90;;;;;;5036585;28;20041;-60
2022/05/26 09:29:52;;;;;;;6.93;0.40;;;18.40;99.90;;;;;;5035641;28;20566;-60
2022/05/26 09:32:19;;;;;;;3.03;0.30;;;18.30;99.90;;;;;;5039490;28;20083;-60
2022/05/26 09:35:07;;;;;;;3.97;0.30;;;18.30;99.90;;;;;;5034990;28;20233;-61
2022/05/26 09:37:41;;;;;;;5.88;0.50;;;18.10;99.90;;;;;;5036639;28;20661;-60
2022/05/26 09:40:16;;;;;;;3.25;0.30;;;17.90;99.90;;;;;;5040391;28;20392;-60
2022/05/26 09:42:43;;;;;;;3.97;0.30;;;18.00;99.90;;;;;;5039729;28;20049;-60
2022/05/26 09:45:14;;;;;;;6.13;0.45;;;18.40;99.90;;;;;;5035091;28;20072;-60
2022/05/26 09:47:57;;;;;;;4.05;0.40;;;18.50;99.90;;;;;;5040081;28;20052;-60
2022/05/26 09:50:37;;;;;;;3.42;0.30;;;18.40;99.90;;;;;;5044541;28;20114;-60
2022/05/26 09:53:09;;;;;;;5.22;0.30;;;18.10;99.90;;;;;;5034298;28;20522;-60
2022/05/26 09:55:44;;;;;;;5.30;0.30;;;17.90;99.90;;;;;;5032368;28;20601;-60
2022/05/26 09:58:27;;;;;;;4.30;0.30;;;17.80;99.90;;;;;;5042381;28;20068;-61
2022/05/26 10:00:58;;;;;;;5.70;0.45;;;17.90;99.90;;;;;;5031381;28;20107;-61
2022/05/26 10:03:39;;;;;;;4.55;0.38;;;18.30;99.90;;;;;;5028576;28;20048;-60
2022/05/26 10:06:15;;;;;;;2.10;0.20;;;18.30;99.90;;;;;;5040303;28;20084;-61
2022/05/26 10:09:18;;;;;;;3.08;0.20;;;18.00;99.90;;;;;;5038818;28;20416;-60
2022/05/26 10:11:53;;;;;;;3.85;0.30;;;18.20;99.90;;;;;;5032776;28;20394;-61
2022/05/26 10:14:28;;;;;;;4.20;0.40;;;18.60;99.90;;;;;;5030563;28;20051;-61
2022/05/26 10:17:02;;;;;;;4.35;0.30;;;19.00;99.90;;;;;;5037879;28;20048;-61
2022/05/26 10:19:56;;;;;;;5.07;0.35;;;19.30;99.90;;;;;;5052682;28;20464;-61
2022/05/26 10:22:35;;;;;;;4.03;0.40;;;19.90;99.90;;;;;;5051161;28;20458;-61
2022/05/26 10:25:07;;;;;;;4.07;0.30;;;19.60;99.90;;;;;;5041601;28;20417;-61
2022/05/26 10:27:53;;;;;;;2.85;0.30;;;19.90;99.90;;;;;;5039520;28;20122;-61
2022/05/26 10:30:31;;;;;;;4.05;0.30;;;19.50;99.90;;;;;;5029935;28;20500;-61
2022/05/26 10:33:09;;;;;;;5.05;0.30;;;19.60;99.90;;;;;;5060545;28;20449;-60
2022/05/26 10:35:51;;;;;;;3.42;0.30;;;19.00;99.90;;;;;;5034199;28;20457;-60
2022/05/26 10:38:24;;;;;;;3.30;0.30;;;19.10;99.90;;;;;;5029348;28;20124;-60
2022/05/26 10:41:11;;;;;;;3.67;0.30;;;19.00;99.90;;;;;;5024114;28;20048;-61
2022/05/26 10:44:08;;;;;;;4.70;0.30;;;19.00;99.90;;;;;;5033738;28;20504;-60
2022/05/26 10:46:39;;;;;;;3.08;0.30;;;18.90;99.90;;;;;;5029091;28;20324;-60
2022/05/26 10:49:18;;;;;;;1.58;0.20;;;19.20;99.90;;;;;;5038786;28;20040;-60
2022/05/26 10:52:02;;;;;;;4.25;0.30;;;19.80;99.90;;;;;;5039167;28;20405;-61
2022/05/26 10:54:38;;;;;;;;;;;19.80;99.90;;;;;;5040986;28;20407;-62
2022/05/26 10:57:38;;;;;;;4.85;0.30;;;20.10;99.90;;;;;;5030509;28;19921;-60
2022/05/26 11:00:16;;;;;;;1.88;0.25;;;20.10;99.90;;;;;;5020799;28;20082;-61
2022/05/26 11:02:51;;;;;;;5.13;0.30;;;19.60;99.90;;;;;;5030801;28;20037;-61
2022/05/26 11:05:30;;;;;;;3.25;0.50;;;19.30;99.90;;;;;;5032662;28;20140;-63
2022/05/26 11:08:13;;;;;;;5.32;0.30;;;19.40;99.90;;;;;;5035570;28;20075;-62
2022/05/26 11:11:06;;;;;;;4.13;0.35;;;20.10;99.90;;;;;;5036919;28;21609;-62
2022/05/26 11:13:42;;;;;;;6.65;0.52;;;20.40;99.90;;;;;;4989285;28;20171;-62
2022/05/26 11:19:28;;;;;;;2.72;0.32;;;20.60;99.90;;;;;;5040626;28;20083;-63
2022/05/26 11:21:54;;;;;;;2.58;0.30;;;19.80;99.90;;;;;;5050979;28;20052;-62
2022/05/26 11:24:22;;;;;;;1.95;0.25;;;19.60;99.90;;;;;;5051122;28;20064;-62
2022/05/26 11:26:58;;;;;;;2.53;0.30;;;19.20;99.90;;;;;;5034562;28;20049;-62
2022/05/26 11:29:35;;;;;;;4.93;0.40;;;19.30;99.90;;;;;;5050743;28;20041;-62
2022/05/26 11:38:12;;;;;;;3.63;0.52;;;19.50;99.90;;;;;;5050901;28;20049;-62
2022/05/26 11:40:53;;;;;;;2.28;0.30;;;19.40;99.90;;;;;;5050863;28;20045;-61
2022/05/26 11:43:35;;;;;;;5.57;0.40;;;19.30;99.90;;;;;;5050462;28;20045;-62
2022/05/26 11:46:01;;;;;;;4.28;0.32;;;19.30;99.90;;;;;;5034441;28;20115;-62
2022/05/26 11:48:33;;;;;;;4.38;0.38;;;19.30;99.90;;;;;;5034344;28;20052;-62
2022/05/26 11:51:02;;;;;;;2.25;0.20;;;19.30;99.90;;;;;;5033882;28;20099;-62
2022/05/26 11:53:32;;;;;;;4.07;0.40;;;19.10;99.90;;;;;;5050193;28;20048;-61
2022/05/26 11:56:19;;;;;;;3.80;0.40;;;18.70;99.90;;;;;;5050490;28;20049;-61
2022/05/26 11:58:47;;;;;;;9.95;0.40;;;18.30;99.90;;;;;;5020302;28;20364;-62
2022/05/26 12:01:19;;;;;;;3.80;0.35;;;18.10;99.90;;;;;;5051408;28;20460;-61
2022/05/26 12:04:12;;;;;;;2.78;0.30;;;17.90;99.90;;;;;;5052493;28;20076;-61
2022/05/26 12:06:38;;;;;;;2.28;0.40;;;17.80;99.90;;;;;;5053659;28;20503;-61
2022/05/26 12:09:05;;;;;;;2.47;0.43;;;17.90;99.90;;;;;;5052170;28;20067;-61
2022/05/26 12:12:28;;;;;;;3.33;0.30;;;18.30;99.90;;;;;;5053451;28;20080;-61
2022/05/26 12:15:06;;;;;;;2.78;0.50;;;18.40;99.90;;;;;;5035196;28;20047;-61
2022/05/26 12:17:44;;;;;;;4.65;0.82;;;18.70;99.90;;;;;;5051615;28;20060;-61
2022/05/26 12:20:10;;;;;;;4.95;0.40;;;19.00;99.90;;;;;;5052067;28;20063;-61
2022/05/26 12:22:51;;;;;;;3.63;0.30;;;19.40;99.90;;;;;;5051905;28;20120;-60
2022/05/26 12:25:27;;;;;;;3.38;0.55;;;19.30;99.90;;;;;;5053454;28;20048;-60
2022/05/26 12:28:14;;;;;;;4.45;0.30;;;18.90;99.90;;;;;;5052026;28;20053;-61
2022/05/26 12:30:46;;;;;;;4.82;0.30;;;18.70;99.90;;;;;;5051879;28;20096;-61
2022/05/26 12:33:21;;;;;;;3.85;0.30;;;18.50;99.90;;;;;;5050060;28;20051;-61
2022/05/26 12:36:23;;;;;;;3.47;0.30;;;18.50;99.90;;;;;;5051265;28;20633;-61
2022/05/26 12:39:25;;;;;;;4.37;0.50;;;18.50;99.90;;;;;;5049865;28;20041;-61
2022/05/26 12:41:59;;;;;;;4.07;0.40;;;18.50;99.90;;;;;;5049823;28;20388;-61
2022/05/26 12:44:59;;;;;;;2.70;0.30;;;18.50;99.90;;;;;;5049692;28;20052;-61
2022/05/26 12:47:36;;;;;;;3.58;0.30;;;18.80;99.90;;;;;;5049843;28;20057;-60
2022/05/26 12:50:19;;;;;;;3.42;0.30;;;18.80;99.90;;;;;;5032852;28;20095;-61
2022/05/26 12:52:59;;;;;;;4.70;0.30;;;18.80;99.90;;;;;;5050938;28;20131;-61
2022/05/26 12:55:31;;;;;;;3.13;0.40;;;18.60;99.90;;;;;;5049303;28;20040;-60
2022/05/26 12:58:13;;;;;;;5.50;0.45;;;18.70;99.90;;;;;;5033144;28;20183;-60
2022/05/26 13:01:19;;;;;;;5.05;0.60;;;18.70;99.90;;;;;;5049310;28;20125;-60
2022/05/26 13:03:48;;;;;;;4.82;0.40;;;18.70;99.90;;;;;;5051100;28;20045;-61
2022/05/26 13:06:21;;;;;;;4.22;0.35;;;19.00;99.90;;;;;;5049279;28;20323;-61
2022/05/26 13:08:53;;;;;;;5.18;0.38;;;19.40;99.90;;;;;;5032900;28;20594;-61
2022/05/26 13:11:27;;;;;;;4.30;0.30;;;18.90;99.90;;;;;;5031997;28;20052;-61
2022/05/26 13:13:58;;;;;;;6.07;0.38;;;18.90;99.90;;;;;;5049113;28;20049;-61
2022/05/26 13:16:39;;;;;;;3.80;0.20;;;18.90;99.90;;;;;;5049414;28;20063;-63
2022/05/26 13:19:18;;;;;;;3.78;0.30;;;18.90;99.90;;;;;;5048944;28;20045;-62
2022/05/26 13:21:51;;;;;;;2.08;0.30;;;18.90;99.90;;;;;;5048705;28;20053;-61
2022/05/26 13:24:20;;;;;;;3.60;0.20;;;19.10;99.90;;;;;;5048917;28;20128;-61
2022/05/26 13:26:49;;;;;;;5.30;0.35;;;19.20;99.90;;;;;;5050282;28;20311;-61
2022/05/26 13:29:18;;;;;;;3.83;0.50;;;18.90;99.90;;;;;;5048997;28;20045;-62
2022/05/26 13:34:31;;;;;;;4.10;0.20;;;19.30;99.90;;;;;;5048800;28;20088;-61
2022/05/26 13:37:13;;;;;;;3.80;0.20;;;19.30;99.90;;;;;;5032310;28;20395;-61
2022/05/26 13:39:39;;;;;;;1.80;0.23;;;19.10;99.90;;;;;;5048474;28;20048;-60
2022/05/26 13:42:05;;;;;;;4.45;0.30;;;19.00;99.90;;;;;;5048610;28;20045;-60
2022/05/26 13:44:41;;;;;;;5.13;0.50;;;18.70;99.90;;;;;;5048804;28;20576;-60
2022/05/26 13:47:11;;;;;;;4.60;0.52;;;18.50;99.90;;;;;;5048745;28;20072;-60
2022/05/26 13:49:55;;;;;;;6.00;0.35;;;18.40;99.90;;;;;;5048004;28;20049;-60
2022/05/26 13:52:25;;;;;;;7.50;0.40;;;18.40;99.90;;;;;;5048312;28;20089;-61
2022/05/26 13:54:57;;;;;;;6.97;0.50;;;18.50;99.90;;;;;;5048574;28;20466;-60
2022/05/26 13:57:24;;;;;;;4.57;0.70;;;18.50;99.90;;;;;;5050617;28;20040;-62
2022/05/26 13:59:59;;;;;;;3.78;0.30;;;18.50;99.90;;;;;;5048258;28;20608;-59